LIBN

Lecce Galatina Air Base Airport

Italy
TAF LIBN 260500Z 2606/2615 VRB03KT CAVOK
Issued Valid From Valid To
Apr-26 @ 05:00 UTC
(54 minutes ago)
Apr-26 @ 06:00 UTC
(in 6 minutes)
Apr-26 @ 15:00 UTC
(in 9 hours)
Apr-26 @ 06:00 to Apr-26 @ 15:00
TAF LIBN 260500Z 2606/2615 VRB03KT CAVOK
Wind Visibility Clouds Conditions
Variable at 3 knots 10,000+ meters
  • No significant clouds
TAF LIBN 260500Z 2606/2615 VRB03KT CAVOK
Issued Apr-26 @ 05:00 UTC
(54 minutes ago)
Valid From Apr-26 @ 06:00 UTC
(in 6 minutes)
Valid To Apr-26 @ 15:00 UTC
(in 9 hours)
Apr-26 @ 06:00 - Apr-26 @ 15:00
Wind Visibility
Variable at 3 knots 10,000+ meters
Clouds
  • No significant clouds
Conditions